sensor_id;sensor_type;location;lat;lon;timestamp;temperature;humidity
7117;DHT22;3600;48.568;7.870;2024-01-15T00:00:11;-1.80;99.90
7117;DHT22;3600;48.568;7.870;2024-01-15T00:02:38;-1.80;99.90
7117;DHT22;3600;48.568;7.870;2024-01-15T00:05:05;-1.80;99.90
7117;DHT22;3600;48.568;7.870;2024-01-15T00:07:32;-1.70;99.90
7117;DHT22;3600;48.568;7.870;2024-01-15T00:09:58;-1.90;99.90
7117;DHT22;3600;48.568;7.870;2024-01-15T00:12:25;-1.90;99.90
7117;DHT22;3600;48.568;7.870;2024-01-15T00:14:52;-1.80;99.90
7117;DHT22;3600;48.568;7.870;2024-01-15T00:17:19;-1.80;99.90
7117;DHT22;3600;48.568;7.870;2024-01-15T00:19:45;-1.80;99.90
7117;DHT22;3600;48.568;7.870;2024-01-15T00:22:12;-1.80;99.90
7117;DHT22;3600;48.568;7.870;2024-01-15T00:24:39;-1.80;99.90
7117;DHT22;3600;48.568;7.870;2024-01-15T00:27:06;-1.80;99.90
7117;DHT22;3600;48.568;7.870;2024-01-15T00:29:32;-1.90;99.90
7117;DHT22;3600;48.568;7.870;2024-01-15T00:31:59;-1.90;99.90
7117;DHT22;3600;48.568;7.870;2024-01-15T00:34:26;-1.90;99.90
7117;DHT22;3600;48.568;7.870;2024-01-15T00:36:53;-1.80;99.90
7117;DHT22;3600;48.568;7.870;2024-01-15T00:39:20;-1.90;99.90
7117;DHT22;3600;48.568;7.870;2024-01-15T00:41:47;-1.80;99.90
7117;DHT22;3600;48.568;7.870;2024-01-15T00:44:14;-1.80;99.90
7117;DHT22;3600;48.568;7.870;2024-01-15T00:46:45;-1.70;99.90
7117;DHT22;3600;48.568;7.870;2024-01-15T00:49:13;-1.70;99.90
7117;DHT22;3600;48.568;7.870;2024-01-15T00:51:40;-1.70;99.90
7117;DHT22;3600;48.568;7.870;2024-01-15T00:54:07;-1.70;99.90
7117;DHT22;3600;48.568;7.870;2024-01-15T00:56:34;-1.70;99.90
7117;DHT22;3600;48.568;7.870;2024-01-15T00:59:01;-1.70;99.90
7117;DHT22;3600;48.568;7.870;2024-01-15T01:01:27;-1.80;99.90
7117;DHT22;3600;48.568;7.870;2024-01-15T01:03:54;-1.80;99.90
7117;DHT22;3600;48.568;7.870;2024-01-15T01:06:21;-1.70;99.90
7117;DHT22;3600;48.568;7.870;2024-01-15T01:08:48;-1.70;99.90
7117;DHT22;3600;48.568;7.870;2024-01-15T01:11:15;-1.70;99.90
7117;DHT22;3600;48.568;7.870;2024-01-15T01:13:42;-1.70;99.90
7117;DHT22;3600;48.568;7.870;2024-01-15T01:16:09;-1.60;99.90
7117;DHT22;3600;48.568;7.870;2024-01-15T01:18:36;-1.60;99.90
7117;DHT22;3600;48.568;7.870;2024-01-15T01:21:03;-1.70;99.90
7117;DHT22;3600;48.568;7.870;2024-01-15T01:23:30;-1.60;99.90
7117;DHT22;3600;48.568;7.870;2024-01-15T01:25:57;-1.60;99.90
7117;DHT22;3600;48.568;7.870;2024-01-15T01:28:23;-1.70;99.90
7117;DHT22;3600;48.568;7.870;2024-01-15T01:30:50;-1.80;99.90
7117;DHT22;3600;48.568;7.870;2024-01-15T01:33:17;-1.80;99.90
7117;DHT22;3600;48.568;7.870;2024-01-15T01:35:44;-1.70;99.90
7117;DHT22;3600;48.568;7.870;2024-01-15T01:38:12;-1.60;99.90
7117;DHT22;3600;48.568;7.870;2024-01-15T01:40:39;-1.50;99.90
7117;DHT22;3600;48.568;7.870;2024-01-15T01:43:05;-1.50;99.90
7117;DHT22;3600;48.568;7.870;2024-01-15T01:45:32;-1.50;99.90
7117;DHT22;3600;48.568;7.870;2024-01-15T01:48:00;-1.40;99.90
7117;DHT22;3600;48.568;7.870;2024-01-15T01:50:29;-1.40;99.90
7117;DHT22;3600;48.568;7.870;2024-01-15T01:52:59;-1.40;99.90
7117;DHT22;3600;48.568;7.870;2024-01-15T01:55:27;-1.40;99.90
7117;DHT22;3600;48.568;7.870;2024-01-15T01:57:56;-1.40;99.90
7117;DHT22;3600;48.568;7.870;2024-01-15T02:00:23;-1.40;99.90
7117;DHT22;3600;48.568;7.870;2024-01-15T02:02:50;-1.40;99.90
7117;DHT22;3600;48.568;7.870;2024-01-15T02:05:18;-1.50;99.90
7117;DHT22;3600;48.568;7.870;2024-01-15T02:07:46;-1.40;99.90
7117;DHT22;3600;48.568;7.870;2024-01-15T02:10:14;-1.40;99.90
7117;DHT22;3600;48.568;7.870;2024-01-15T02:12:42;-1.40;99.90
7117;DHT22;3600;48.568;7.870;2024-01-15T02:15:10;-1.40;99.90
7117;DHT22;3600;48.568;7.870;2024-01-15T02:18:03;-1.40;99.90
7117;DHT22;3600;48.568;7.870;2024-01-15T02:20:31;-1.40;99.90
7117;DHT22;3600;48.568;7.870;2024-01-15T02:25:35;-1.40;99.90
7117;DHT22;3600;48.568;7.870;2024-01-15T02:28:03;-1.40;99.90
7117;DHT22;3600;48.568;7.870;2024-01-15T02:30:31;-1.30;99.90
7117;DHT22;3600;48.568;7.870;2024-01-15T02:32:58;-1.30;99.90
7117;DHT22;3600;48.568;7.870;2024-01-15T02:35:24;-1.30;99.90
7117;DHT22;3600;48.568;7.870;2024-01-15T02:37:51;-1.30;99.90
7117;DHT22;3600;48.568;7.870;2024-01-15T02:40:18;-1.30;99.90
7117;DHT22;3600;48.568;7.870;2024-01-15T02:42:44;-1.30;99.90
7117;DHT22;3600;48.568;7.870;2024-01-15T02:45:11;-1.30;99.90
7117;DHT22;3600;48.568;7.870;2024-01-15T02:47:38;-1.30;99.90
7117;DHT22;3600;48.568;7.870;2024-01-15T02:50:05;-1.30;99.90
7117;DHT22;3600;48.568;7.870;2024-01-15T02:52:32;-1.30;99.90
7117;DHT22;3600;48.568;7.870;2024-01-15T02:54:59;-1.30;99.90
7117;DHT22;3600;48.568;7.870;2024-01-15T02:57:26;-1.30;99.90
7117;DHT22;3600;48.568;7.870;2024-01-15T02:59:53;-1.30;99.90
7117;DHT22;3600;48.568;7.870;2024-01-15T03:02:19;-1.30;99.90
7117;DHT22;3600;48.568;7.870;2024-01-15T03:04:46;-1.30;99.90
7117;DHT22;3600;48.568;7.870;2024-01-15T03:07:13;-1.30;99.90
7117;DHT22;3600;48.568;7.870;2024-01-15T03:09:40;-1.30;99.90
7117;DHT22;3600;48.568;7.870;2024-01-15T03:12:07;-1.30;99.90
7117;DHT22;3600;48.568;7.870;2024-01-15T03:14:33;-1.30;99.90
7117;DHT22;3600;48.568;7.870;2024-01-15T03:17:01;-1.30;99.90
7117;DHT22;3600;48.568;7.870;2024-01-15T03:19:28;-1.20;99.90
7117;DHT22;3600;48.568;7.870;2024-01-15T03:21:55;-1.30;99.90
7117;DHT22;3600;48.568;7.870;2024-01-15T03:24:22;-1.30;99.90
7117;DHT22;3600;48.568;7.870;2024-01-15T03:26:48;-1.30;99.90
7117;DHT22;3600;48.568;7.870;2024-01-15T03:29:15;-1.30;99.90
7117;DHT22;3600;48.568;7.870;2024-01-15T03:31:42;-1.30;99.90
7117;DHT22;3600;48.568;7.870;2024-01-15T03:34:09;-1.30;99.90
7117;DHT22;3600;48.568;7.870;2024-01-15T03:36:36;-1.30;99.90
7117;DHT22;3600;48.568;7.870;2024-01-15T03:39:03;-1.30;99.90
7117;DHT22;3600;48.568;7.870;2024-01-15T03:41:30;-1.20;99.90
7117;DHT22;3600;48.568;7.870;2024-01-15T03:43:57;-1.20;99.90
7117;DHT22;3600;48.568;7.870;2024-01-15T03:46:25;-1.20;99.90
7117;DHT22;3600;48.568;7.870;2024-01-15T03:48:52;-1.20;99.90
7117;DHT22;3600;48.568;7.870;2024-01-15T03:51:19;-1.20;99.90
7117;DHT22;3600;48.568;7.870;2024-01-15T03:53:46;-1.20;99.90
7117;DHT22;3600;48.568;7.870;2024-01-15T03:56:13;-1.30;99.90
7117;DHT22;3600;48.568;7.870;2024-01-15T03:58:39;-1.30;99.90
7117;DHT22;3600;48.568;7.870;2024-01-15T04:01:10;-1.20;99.90
7117;DHT22;3600;48.568;7.870;2024-01-15T04:03:37;-1.20;99.90
7117;DHT22;3600;48.568;7.870;2024-01-15T04:06:04;-1.30;99.90
7117;DHT22;3600;48.568;7.870;2024-01-15T04:08:31;-1.20;99.90
7117;DHT22;3600;48.568;7.870;2024-01-15T04:10:58;-1.20;99.90
7117;DHT22;3600;48.568;7.870;2024-01-15T04:13:26;-1.30;99.90
7117;DHT22;3600;48.568;7.870;2024-01-15T04:15:52;-1.20;99.90
7117;DHT22;3600;48.568;7.870;2024-01-15T04:18:19;-1.30;99.90
7117;DHT22;3600;48.568;7.870;2024-01-15T04:20:46;-1.30;99.90
7117;DHT22;3600;48.568;7.870;2024-01-15T04:23:13;-1.30;99.90
7117;DHT22;3600;48.568;7.870;2024-01-15T04:25:39;-1.20;99.90
7117;DHT22;3600;48.568;7.870;2024-01-15T04:28:09;-1.30;99.90
7117;DHT22;3600;48.568;7.870;2024-01-15T04:30:36;-1.30;99.90
7117;DHT22;3600;48.568;7.870;2024-01-15T04:33:03;-1.30;99.90
7117;DHT22;3600;48.568;7.870;2024-01-15T04:35:30;-1.30;99.90
7117;DHT22;3600;48.568;7.870;2024-01-15T04:37:57;-1.30;99.90
7117;DHT22;3600;48.568;7.870;2024-01-15T04:40:24;-1.30;99.90
7117;DHT22;3600;48.568;7.870;2024-01-15T04:42:54;-1.30;99.90
7117;DHT22;3600;48.568;7.870;2024-01-15T04:45:21;-1.30;99.90
7117;DHT22;3600;48.568;7.870;2024-01-15T04:47:49;-1.30;99.90
7117;DHT22;3600;48.568;7.870;2024-01-15T04:50:16;-1.30;99.90
7117;DHT22;3600;48.568;7.870;2024-01-15T04:52:43;-1.30;99.90
7117;DHT22;3600;48.568;7.870;2024-01-15T04:55:10;-1.20;99.90
7117;DHT22;3600;48.568;7.870;2024-01-15T04:57:36;-1.20;99.90
7117;DHT22;3600;48.568;7.870;2024-01-15T05:00:03;-1.20;99.90
7117;DHT22;3600;48.568;7.870;2024-01-15T05:02:31;-1.20;99.90
7117;DHT22;3600;48.568;7.870;2024-01-15T05:04:58;-1.20;99.90
7117;DHT22;3600;48.568;7.870;2024-01-15T05:07:25;-1.20;99.90
7117;DHT22;3600;48.568;7.870;2024-01-15T05:09:51;-1.10;99.90
7117;DHT22;3600;48.568;7.870;2024-01-15T05:12:18;-1.20;99.90
7117;DHT22;3600;48.568;7.870;2024-01-15T05:14:45;-1.20;99.90
7117;DHT22;3600;48.568;7.870;2024-01-15T05:17:12;-1.20;99.90
7117;DHT22;3600;48.568;7.870;2024-01-15T05:19:38;-1.20;99.90
7117;DHT22;3600;48.568;7.870;2024-01-15T05:22:05;-1.20;99.90
7117;DHT22;3600;48.568;7.870;2024-01-15T05:24:32;-1.10;99.90
7117;DHT22;3600;48.568;7.870;2024-01-15T05:26:59;-1.10;99.90
7117;DHT22;3600;48.568;7.870;2024-01-15T05:29:26;-1.10;99.90
7117;DHT22;3600;48.568;7.870;2024-01-15T05:31:53;-1.10;99.90
7117;DHT22;3600;48.568;7.870;2024-01-15T05:34:20;-1.10;99.90
7117;DHT22;3600;48.568;7.870;2024-01-15T05:36:46;-1.10;99.90
7117;DHT22;3600;48.568;7.870;2024-01-15T05:39:14;-1.10;99.90
7117;DHT22;3600;48.568;7.870;2024-01-15T05:41:41;-1.10;99.90
7117;DHT22;3600;48.568;7.870;2024-01-15T05:44:08;-1.10;99.90
7117;DHT22;3600;48.568;7.870;2024-01-15T05:46:35;-1.10;99.90
7117;DHT22;3600;48.568;7.870;2024-01-15T05:49:01;-1.10;99.90
7117;DHT22;3600;48.568;7.870;2024-01-15T05:51:28;-1.10;99.90
7117;DHT22;3600;48.568;7.870;2024-01-15T05:53:55;-1.10;99.90
7117;DHT22;3600;48.568;7.870;2024-01-15T05:56:22;-1.10;99.90
7117;DHT22;3600;48.568;7.870;2024-01-15T05:58:50;-1.10;99.90
7117;DHT22;3600;48.568;7.870;2024-01-15T06:01:17;-1.00;99.90
7117;DHT22;3600;48.568;7.870;2024-01-15T06:03:44;-1.00;99.90
7117;DHT22;3600;48.568;7.870;2024-01-15T06:06:11;-1.00;99.90
7117;DHT22;3600;48.568;7.870;2024-01-15T06:08:38;-1.00;99.90
7117;DHT22;3600;48.568;7.870;2024-01-15T06:11:06;-1.00;99.90
7117;DHT22;3600;48.568;7.870;2024-01-15T06:13:33;-1.00;99.90
7117;DHT22;3600;48.568;7.870;2024-01-15T06:16:00;-1.00;99.90
7117;DHT22;3600;48.568;7.870;2024-01-15T06:18:27;-1.00;99.90
7117;DHT22;3600;48.568;7.870;2024-01-15T06:20:54;-1.00;99.90
7117;DHT22;3600;48.568;7.870;2024-01-15T06:23:20;-1.00;99.90
7117;DHT22;3600;48.568;7.870;2024-01-15T06:25:47;-1.00;99.90
7117;DHT22;3600;48.568;7.870;2024-01-15T06:28:14;-1.00;99.90
7117;DHT22;3600;48.568;7.870;2024-01-15T06:30:41;-1.00;99.90
7117;DHT22;3600;48.568;7.870;2024-01-15T06:33:08;-1.00;99.90
7117;DHT22;3600;48.568;7.870;2024-01-15T06:35:35;-0.90;99.90
7117;DHT22;3600;48.568;7.870;2024-01-15T06:38:02;-0.90;99.90
7117;DHT22;3600;48.568;7.870;2024-01-15T06:40:29;-1.00;99.90
7117;DHT22;3600;48.568;7.870;2024-01-15T06:42:55;-1.00;99.90
7117;DHT22;3600;48.568;7.870;2024-01-15T06:45:22;-0.90;99.90
7117;DHT22;3600;48.568;7.870;2024-01-15T06:47:49;-0.90;99.90
7117;DHT22;3600;48.568;7.870;2024-01-15T06:50:16;-0.90;99.90
7117;DHT22;3600;48.568;7.870;2024-01-15T06:52:43;-0.90;99.90
7117;DHT22;3600;48.568;7.870;2024-01-15T06:55:09;-0.80;99.90
7117;DHT22;3600;48.568;7.870;2024-01-15T06:57:36;-0.80;99.90
7117;DHT22;3600;48.568;7.870;2024-01-15T07:00:03;-0.80;99.90
7117;DHT22;3600;48.568;7.870;2024-01-15T07:02:34;-0.80;99.90
7117;DHT22;3600;48.568;7.870;2024-01-15T07:05:01;-0.90;99.90
7117;DHT22;3600;48.568;7.870;2024-01-15T07:07:28;-0.80;99.90
7117;DHT22;3600;48.568;7.870;2024-01-15T07:09:56;-0.80;99.90
7117;DHT22;3600;48.568;7.870;2024-01-15T07:12:23;-0.70;99.90
7117;DHT22;3600;48.568;7.870;2024-01-15T07:14:50;-0.70;99.90
7117;DHT22;3600;48.568;7.870;2024-01-15T07:17:16;-0.70;99.90
7117;DHT22;3600;48.568;7.870;2024-01-15T07:19:43;-0.70;99.90
7117;DHT22;3600;48.568;7.870;2024-01-15T07:22:10;-0.70;99.90
7117;DHT22;3600;48.568;7.870;2024-01-15T07:24:37;-0.70;99.90
7117;DHT22;3600;48.568;7.870;2024-01-15T07:27:04;-0.70;99.90
7117;DHT22;3600;48.568;7.870;2024-01-15T07:29:31;-0.60;99.90
7117;DHT22;3600;48.568;7.870;2024-01-15T07:31:59;-0.60;99.90
7117;DHT22;3600;48.568;7.870;2024-01-15T07:34:27;-0.70;99.90
7117;DHT22;3600;48.568;7.870;2024-01-15T07:36:53;-0.70;99.90
7117;DHT22;3600;48.568;7.870;2024-01-15T07:39:20;-0.70;99.90
7117;DHT22;3600;48.568;7.870;2024-01-15T07:41:50;-0.70;99.90
7117;DHT22;3600;48.568;7.870;2024-01-15T07:44:17;-0.60;99.90
7117;DHT22;3600;48.568;7.870;2024-01-15T07:46:47;-0.60;99.90
7117;DHT22;3600;48.568;7.870;2024-01-15T07:49:13;-0.70;99.90
7117;DHT22;3600;48.568;7.870;2024-01-15T07:51:40;-0.70;99.90
7117;DHT22;3600;48.568;7.870;2024-01-15T07:54:07;-0.70;99.90
7117;DHT22;3600;48.568;7.870;2024-01-15T07:56:34;-0.60;99.90
7117;DHT22;3600;48.568;7.870;2024-01-15T07:59:01;-0.50;99.90
7117;DHT22;3600;48.568;7.870;2024-01-15T08:01:27;-0.50;99.90
7117;DHT22;3600;48.568;7.870;2024-01-15T08:03:54;-0.40;99.90
7117;DHT22;3600;48.568;7.870;2024-01-15T08:06:22;-0.40;99.90
7117;DHT22;3600;48.568;7.870;2024-01-15T08:08:49;-0.40;99.90
7117;DHT22;3600;48.568;7.870;2024-01-15T08:11:15;-0.40;99.90
7117;DHT22;3600;48.568;7.870;2024-01-15T08:13:42;-0.50;99.90
7117;DHT22;3600;48.568;7.870;2024-01-15T08:16:09;-0.40;99.90
7117;DHT22;3600;48.568;7.870;2024-01-15T08:18:35;-0.40;99.90
7117;DHT22;3600;48.568;7.870;2024-01-15T08:21:02;-0.40;99.90
7117;DHT22;3600;48.568;7.870;2024-01-15T08:23:30;-0.40;99.90
7117;DHT22;3600;48.568;7.870;2024-01-15T08:25:57;-0.40;99.90
7117;DHT22;3600;48.568;7.870;2024-01-15T08:28:25;-0.30;99.90
7117;DHT22;3600;48.568;7.870;2024-01-15T08:30:51;-0.30;99.90
7117;DHT22;3600;48.568;7.870;2024-01-15T08:33:18;-0.30;99.90
7117;DHT22;3600;48.568;7.870;2024-01-15T08:35:48;-0.30;99.90
7117;DHT22;3600;48.568;7.870;2024-01-15T08:38:15;-0.30;99.90
7117;DHT22;3600;48.568;7.870;2024-01-15T08:40:42;-0.20;99.90
7117;DHT22;3600;48.568;7.870;2024-01-15T08:43:09;-0.20;99.90
7117;DHT22;3600;48.568;7.870;2024-01-15T08:45:35;-0.20;99.90
7117;DHT22;3600;48.568;7.870;2024-01-15T08:48:02;-0.20;99.90
7117;DHT22;3600;48.568;7.870;2024-01-15T08:50:32;-0.20;99.90
7117;DHT22;3600;48.568;7.870;2024-01-15T08:52:59;-0.20;99.90
7117;DHT22;3600;48.568;7.870;2024-01-15T08:55:26;-0.10;99.90
7117;DHT22;3600;48.568;7.870;2024-01-15T08:57:52;-0.10;99.90
7117;DHT22;3600;48.568;7.870;2024-01-15T09:00:19;-0.10;99.90
7117;DHT22;3600;48.568;7.870;2024-01-15T09:02:46;-0.10;99.90
7117;DHT22;3600;48.568;7.870;2024-01-15T09:05:13;-0.10;99.90
7117;DHT22;3600;48.568;7.870;2024-01-15T09:07:40;0.00;99.90
7117;DHT22;3600;48.568;7.870;2024-01-15T09:10:07;0.00;99.90
7117;DHT22;3600;48.568;7.870;2024-01-15T09:12:34;0.00;99.90
7117;DHT22;3600;48.568;7.870;2024-01-15T09:15:01;0.00;99.90
7117;DHT22;3600;48.568;7.870;2024-01-15T09:17:32;0.00;99.90
7117;DHT22;3600;48.568;7.870;2024-01-15T09:19:58;0.00;99.90
7117;DHT22;3600;48.568;7.870;2024-01-15T09:22:26;0.00;99.90
7117;DHT22;3600;48.568;7.870;2024-01-15T09:24:52;0.00;99.90
7117;DHT22;3600;48.568;7.870;2024-01-15T09:27:19;0.00;99.90
7117;DHT22;3600;48.568;7.870;2024-01-15T09:29:46;0.10;99.90
7117;DHT22;3600;48.568;7.870;2024-01-15T09:32:13;0.10;99.90
7117;DHT22;3600;48.568;7.870;2024-01-15T09:34:40;0.10;99.90
7117;DHT22;3600;48.568;7.870;2024-01-15T09:37:08;0.10;99.90
7117;DHT22;3600;48.568;7.870;2024-01-15T09:39:37;0.10;99.90
7117;DHT22;3600;48.568;7.870;2024-01-15T09:42:04;0.20;99.90
7117;DHT22;3600;48.568;7.870;2024-01-15T09:44:32;0.20;99.90
7117;DHT22;3600;48.568;7.870;2024-01-15T09:46:59;0.20;99.90
7117;DHT22;3600;48.568;7.870;2024-01-15T09:49:26;0.20;99.90
7117;DHT22;3600;48.568;7.870;2024-01-15T09:51:54;0.20;99.90
7117;DHT22;3600;48.568;7.870;2024-01-15T09:54:32;0.30;99.90
7117;DHT22;3600;48.568;7.870;2024-01-15T09:57:00;0.30;99.90
7117;DHT22;3600;48.568;7.870;2024-01-15T09:59:28;0.30;99.90
7117;DHT22;3600;48.568;7.870;2024-01-15T10:01:55;0.40;99.90
7117;DHT22;3600;48.568;7.870;2024-01-15T10:04:23;0.40;99.90
7117;DHT22;3600;48.568;7.870;2024-01-15T10:06:51;0.40;99.90
7117;DHT22;3600;48.568;7.870;2024-01-15T10:09:18;0.40;99.90
7117;DHT22;3600;48.568;7.870;2024-01-15T10:11:45;0.40;99.90
7117;DHT22;3600;48.568;7.870;2024-01-15T10:14:12;0.50;99.90
7117;DHT22;3600;48.568;7.870;2024-01-15T10:16:40;0.50;99.90
7117;DHT22;3600;48.568;7.870;2024-01-15T10:19:07;0.50;99.90
7117;DHT22;3600;48.568;7.870;2024-01-15T10:21:35;0.50;99.90
7117;DHT22;3600;48.568;7.870;2024-01-15T10:24:03;0.50;99.90
7117;DHT22;3600;48.568;7.870;2024-01-15T10:26:31;0.60;99.90
7117;DHT22;3600;48.568;7.870;2024-01-15T10:28:58;0.60;99.90
7117;DHT22;3600;48.568;7.870;2024-01-15T10:31:26;0.60;99.90
7117;DHT22;3600;48.568;7.870;2024-01-15T10:34:12;0.60;99.90
7117;DHT22;3600;48.568;7.870;2024-01-15T10:36:45;0.60;99.90
7117;DHT22;3600;48.568;7.870;2024-01-15T10:39:14;0.60;99.90
7117;DHT22;3600;48.568;7.870;2024-01-15T10:41:41;0.50;99.90
7117;DHT22;3600;48.568;7.870;2024-01-15T10:44:08;0.60;99.90
7117;DHT22;3600;48.568;7.870;2024-01-15T10:46:35;0.60;99.90
7117;DHT22;3600;48.568;7.870;2024-01-15T10:49:02;0.60;99.90
7117;DHT22;3600;48.568;7.870;2024-01-15T10:51:29;0.60;99.90
7117;DHT22;3600;48.568;7.870;2024-01-15T10:53:57;0.60;99.90
7117;DHT22;3600;48.568;7.870;2024-01-15T10:56:25;0.60;99.90
7117;DHT22;3600;48.568;7.870;2024-01-15T10:58:54;0.60;99.90
7117;DHT22;3600;48.568;7.870;2024-01-15T11:01:26;0.60;99.90
7117;DHT22;3600;48.568;7.870;2024-01-15T11:03:56;0.60;99.90
7117;DHT22;3600;48.568;7.870;2024-01-15T11:06:24;0.60;99.90
7117;DHT22;3600;48.568;7.870;2024-01-15T11:08:52;0.60;99.90
7117;DHT22;3600;48.568;7.870;2024-01-15T11:11:21;0.60;99.90
7117;DHT22;3600;48.568;7.870;2024-01-15T11:13:48;0.60;99.90
7117;DHT22;3600;48.568;7.870;2024-01-15T11:16:18;0.60;99.90
7117;DHT22;3600;48.568;7.870;2024-01-15T11:21:25;0.60;99.90
7117;DHT22;3600;48.568;7.870;2024-01-15T11:23:56;0.70;99.90
7117;DHT22;3600;48.568;7.870;2024-01-15T11:29:06;0.80;99.90
7117;DHT22;3600;48.568;7.870;2024-01-15T11:34:08;1.00;99.90
7117;DHT22;3600;48.568;7.870;2024-01-15T11:41:59;1.10;99.90
7117;DHT22;3600;48.568;7.870;2024-01-15T11:44:26;1.20;99.90
7117;DHT22;3600;48.568;7.870;2024-01-15T11:47:01;1.20;99.90
7117;DHT22;3600;48.568;7.870;2024-01-15T11:52:21;1.20;99.90
7117;DHT22;3600;48.568;7.870;2024-01-15T11:55:00;1.20;99.90
7117;DHT22;3600;48.568;7.870;2024-01-15T11:57:41;1.20;99.90
7117;DHT22;3600;48.568;7.870;2024-01-15T12:00:10;1.20;99.90
7117;DHT22;3600;48.568;7.870;2024-01-15T12:02:43;1.20;99.90
7117;DHT22;3600;48.568;7.870;2024-01-15T12:05:11;1.20;99.90
7117;DHT22;3600;48.568;7.870;2024-01-15T12:07:44;1.20;99.90
7117;DHT22;3600;48.568;7.870;2024-01-15T12:12:58;1.20;99.90
7117;DHT22;3600;48.568;7.870;2024-01-15T12:15:29;1.20;99.90
7117;DHT22;3600;48.568;7.870;2024-01-15T12:17:58;1.10;99.90
7117;DHT22;3600;48.568;7.870;2024-01-15T12:20:26;1.10;99.90
7117;DHT22;3600;48.568;7.870;2024-01-15T12:22:54;1.20;99.90
7117;DHT22;3600;48.568;7.870;2024-01-15T12:25:30;1.10;99.90
7117;DHT22;3600;48.568;7.870;2024-01-15T12:27:59;1.10;99.90
7117;DHT22;3600;48.568;7.870;2024-01-15T12:30:27;1.10;99.90
7117;DHT22;3600;48.568;7.870;2024-01-15T12:32:55;1.10;99.90
7117;DHT22;3600;48.568;7.870;2024-01-15T12:35:24;1.10;99.90
7117;DHT22;3600;48.568;7.870;2024-01-15T12:37:54;1.10;99.90
7117;DHT22;3600;48.568;7.870;2024-01-15T12:40:22;1.10;99.90
7117;DHT22;3600;48.568;7.870;2024-01-15T12:42:49;1.10;99.90
7117;DHT22;3600;48.568;7.870;2024-01-15T12:45:17;1.10;99.90
7117;DHT22;3600;48.568;7.870;2024-01-15T12:47:45;1.10;99.90
7117;DHT22;3600;48.568;7.870;2024-01-15T12:50:14;1.00;99.90
7117;DHT22;3600;48.568;7.870;2024-01-15T12:52:46;1.00;99.90
7117;DHT22;3600;48.568;7.870;2024-01-15T12:55:14;1.00;99.90
7117;DHT22;3600;48.568;7.870;2024-01-15T12:57:42;1.00;99.90
7117;DHT22;3600;48.568;7.870;2024-01-15T13:00:10;1.00;99.90
7117;DHT22;3600;48.568;7.870;2024-01-15T13:02:44;1.00;99.90
7117;DHT22;3600;48.568;7.870;2024-01-15T13:05:12;1.00;99.90
7117;DHT22;3600;48.568;7.870;2024-01-15T13:07:41;1.00;99.90
7117;DHT22;3600;48.568;7.870;2024-01-15T13:10:10;1.00;99.90
7117;DHT22;3600;48.568;7.870;2024-01-15T13:12:38;1.00;99.90
7117;DHT22;3600;48.568;7.870;2024-01-15T13:15:06;1.10;99.90
7117;DHT22;3600;48.568;7.870;2024-01-15T13:17:40;1.00;99.90
7117;DHT22;3600;48.568;7.870;2024-01-15T13:20:08;1.00;99.90
7117;DHT22;3600;48.568;7.870;2024-01-15T13:22:36;1.00;99.90
7117;DHT22;3600;48.568;7.870;2024-01-15T13:25:06;1.00;99.90
7117;DHT22;3600;48.568;7.870;2024-01-15T13:27:35;1.00;99.90
7117;DHT22;3600;48.568;7.870;2024-01-15T13:30:05;1.00;99.90
7117;DHT22;3600;48.568;7.870;2024-01-15T13:32:35;0.90;99.90
7117;DHT22;3600;48.568;7.870;2024-01-15T13:35:02;0.90;99.90
7117;DHT22;3600;48.568;7.870;2024-01-15T13:37:32;0.80;99.90
7117;DHT22;3600;48.568;7.870;2024-01-15T13:39:59;0.80;99.90
7117;DHT22;3600;48.568;7.870;2024-01-15T13:42:26;0.80;99.90
7117;DHT22;3600;48.568;7.870;2024-01-15T13:44:54;0.80;99.90
7117;DHT22;3600;48.568;7.870;2024-01-15T13:47:22;0.80;99.90
7117;DHT22;3600;48.568;7.870;2024-01-15T13:49:49;0.80;99.90
7117;DHT22;3600;48.568;7.870;2024-01-15T13:52:16;0.80;99.90
7117;DHT22;3600;48.568;7.870;2024-01-15T13:54:43;0.80;99.90
7117;DHT22;3600;48.568;7.870;2024-01-15T13:57:17;0.80;99.90
7117;DHT22;3600;48.568;7.870;2024-01-15T13:59:45;0.90;99.90
7117;DHT22;3600;48.568;7.870;2024-01-15T14:02:13;0.90;99.90
7117;DHT22;3600;48.568;7.870;2024-01-15T14:04:47;0.90;99.90
7117;DHT22;3600;48.568;7.870;2024-01-15T14:10:38;0.90;99.90
7117;DHT22;3600;48.568;7.870;2024-01-15T14:16:36;0.90;99.90
7117;DHT22;3600;48.568;7.870;2024-01-15T14:19:19;0.90;99.90
7117;DHT22;3600;48.568;7.870;2024-01-15T14:22:00;0.90;99.90
7117;DHT22;3600;48.568;7.870;2024-01-15T14:25:01;1.00;99.90
7117;DHT22;3600;48.568;7.870;2024-01-15T14:27:50;0.90;99.90
7117;DHT22;3600;48.568;7.870;2024-01-15T14:30:26;0.90;99.90
7117;DHT22;3600;48.568;7.870;2024-01-15T14:33:24;0.90;99.90
7117;DHT22;3600;48.568;7.870;2024-01-15T14:36:06;0.90;99.90
7117;DHT22;3600;48.568;7.870;2024-01-15T14:38:49;0.90;99.90
7117;DHT22;3600;48.568;7.870;2024-01-15T14:41:22;0.90;99.90
7117;DHT22;3600;48.568;7.870;2024-01-15T14:44:11;0.90;99.90
7117;DHT22;3600;48.568;7.870;2024-01-15T14:50:35;1.00;99.90
7117;DHT22;3600;48.568;7.870;2024-01-15T14:53:05;1.00;99.90
7117;DHT22;3600;48.568;7.870;2024-01-15T14:55:44;1.00;99.90
7117;DHT22;3600;48.568;7.870;2024-01-15T14:58:59;1.00;99.90
7117;DHT22;3600;48.568;7.870;2024-01-15T15:04:48;1.00;99.90
7117;DHT22;3600;48.568;7.870;2024-01-15T15:07:44;1.00;99.90
7117;DHT22;3600;48.568;7.870;2024-01-15T15:10:46;1.00;99.90
7117;DHT22;3600;48.568;7.870;2024-01-15T15:13:39;1.00;99.90
7117;DHT22;3600;48.568;7.870;2024-01-15T15:17:09;1.00;99.90
7117;DHT22;3600;48.568;7.870;2024-01-15T15:20:20;1.00;99.90
7117;DHT22;3600;48.568;7.870;2024-01-15T15:24:07;1.00;99.90
7117;DHT22;3600;48.568;7.870;2024-01-15T15:27:25;1.10;99.90
7117;DHT22;3600;48.568;7.870;2024-01-15T15:30:09;1.10;99.90
7117;DHT22;3600;48.568;7.870;2024-01-15T15:33:03;1.10;99.90
7117;DHT22;3600;48.568;7.870;2024-01-15T15:35:42;1.10;99.90
7117;DHT22;3600;48.568;7.870;2024-01-15T15:38:25;1.10;99.90
7117;DHT22;3600;48.568;7.870;2024-01-15T15:41:17;1.00;99.90
7117;DHT22;3600;48.568;7.870;2024-01-15T15:43:56;1.00;99.90
7117;DHT22;3600;48.568;7.870;2024-01-15T15:46:38;1.00;99.90
7117;DHT22;3600;48.568;7.870;2024-01-15T15:49:37;1.00;99.90
7117;DHT22;3600;48.568;7.870;2024-01-15T15:57:03;1.00;99.90
7117;DHT22;3600;48.568;7.870;2024-01-15T15:59:54;1.00;99.90
7117;DHT22;3600;48.568;7.870;2024-01-15T16:03:20;1.00;99.90
7117;DHT22;3600;48.568;7.870;2024-01-15T16:10:10;1.00;99.90
7117;DHT22;3600;48.568;7.870;2024-01-15T16:12:42;1.00;99.90
7117;DHT22;3600;48.568;7.870;2024-01-15T16:15:18;1.00;99.90
7117;DHT22;3600;48.568;7.870;2024-01-15T16:18:07;1.00;99.90
7117;DHT22;3600;48.568;7.870;2024-01-15T16:21:31;1.00;99.90
7117;DHT22;3600;48.568;7.870;2024-01-15T16:24:22;0.90;99.90
7117;DHT22;3600;48.568;7.870;2024-01-15T16:27:20;0.90;99.90
7117;DHT22;3600;48.568;7.870;2024-01-15T16:29:49;0.90;99.90
7117;DHT22;3600;48.568;7.870;2024-01-15T16:32:17;0.90;99.90
7117;DHT22;3600;48.568;7.870;2024-01-15T16:34:49;0.80;99.90
7117;DHT22;3600;48.568;7.870;2024-01-15T16:37:20;0.80;99.90
7117;DHT22;3600;48.568;7.870;2024-01-15T16:39:51;0.80;99.90
7117;DHT22;3600;48.568;7.870;2024-01-15T16:42:25;0.80;99.90
7117;DHT22;3600;48.568;7.870;2024-01-15T16:44:54;0.80;99.90
7117;DHT22;3600;48.568;7.870;2024-01-15T16:47:30;0.70;99.90
7117;DHT22;3600;48.568;7.870;2024-01-15T16:50:01;0.70;99.90
7117;DHT22;3600;48.568;7.870;2024-01-15T16:52:40;0.70;99.90
7117;DHT22;3600;48.568;7.870;2024-01-15T16:55:12;0.70;99.90
7117;DHT22;3600;48.568;7.870;2024-01-15T16:57:40;0.80;99.90
7117;DHT22;3600;48.568;7.870;2024-01-15T17:00:10;0.70;99.90
7117;DHT22;3600;48.568;7.870;2024-01-15T17:02:43;0.70;99.90
7117;DHT22;3600;48.568;7.870;2024-01-15T17:05:10;0.70;99.90
7117;DHT22;3600;48.568;7.870;2024-01-15T17:07:46;0.70;99.90
7117;DHT22;3600;48.568;7.870;2024-01-15T17:10:13;0.70;99.90
7117;DHT22;3600;48.568;7.870;2024-01-15T17:12:40;0.70;99.90